Time;durP1;ratioP1;P1;durP2;ratioP2;P2;SDS_P1;SDS_P2;PMS_P1;PMS_P2;Temp;Humidity;BMP_temperature;BMP_pressure;BME280_temperature;BME280_humidity;BME280_pressure;Samples;Min_cycle;Max_cycle;Signal;HPM_P1;HPM_P2
2021/08/27 00:03:00;;;;;;;4.60;3.10;;;;;;;14.55;74.18;99390.17;137289;1202;97663;-75
2021/08/27 00:06:05;;;;;;;4.60;3.00;;;;;;;14.52;74.39;99392.95;137382;1202;108712;-75
2021/08/27 00:09:10;;;;;;;4.70;2.90;;;;;;;14.51;74.16;99393.50;137362;1202;96359;-76
2021/08/27 00:12:16;;;;;;;5.70;3.00;;;;;;;14.48;74.38;99398.80;137286;1202;110934;-75
2021/08/27 00:15:21;;;;;;;4.60;2.90;;;;;;;14.44;74.20;99405.36;137260;1202;96352;-75
2021/08/27 00:18:27;;;;;;;5.30;3.10;;;;;;;14.44;74.32;99405.16;137324;1203;96666;-75
2021/08/27 00:21:32;;;;;;;5.30;3.10;;;;;;;14.45;74.38;99403.51;137276;1202;108429;-75
2021/08/27 00:24:38;;;;;;;6.30;3.10;;;;;;;14.46;74.38;99404.41;137308;1202;97771;-74
2021/08/27 00:27:43;;;;;;;3.70;2.80;;;;;;;14.45;74.24;99407.92;137282;1203;110826;-76
2021/08/27 00:30:48;;;;;;;5.70;3.30;;;;;;;14.45;74.36;99413.17;137304;1202;97657;-74
2021/08/27 00:33:54;;;;;;;5.60;3.00;;;;;;;14.42;74.39;99413.90;137264;1202;96358;-76
2021/08/27 00:37:00;;;;;;;3.90;2.50;;;;;;;14.41;74.48;99421.73;137289;1203;108654;-75
2021/08/27 00:40:08;;;;;;;4.60;3.00;;;;;;;14.43;74.45;99425.25;137367;1202;96403;-75
2021/08/27 00:43:14;;;;;;;4.00;3.00;;;;;;;14.44;74.62;99436.02;137305;1195;110749;-73
2021/08/27 00:46:19;;;;;;;6.80;3.30;;;;;;;14.45;74.63;99438.36;137276;1202;97691;-74
2021/08/27 00:49:25;;;;;;;5.50;3.50;;;;;;;14.46;74.55;99439.40;137300;1202;97633;-73
2021/08/27 00:52:30;;;;;;;6.80;3.70;;;;;;;14.45;74.44;99449.05;137273;1202;107752;-73
2021/08/27 00:55:36;;;;;;;4.70;3.20;;;;;;;14.42;74.66;99452.70;137286;1202;96429;-74
2021/08/27 00:58:42;;;;;;;3.80;2.90;;;;;;;14.41;74.47;99457.49;137300;1202;110828;-74
2021/08/27 01:01:47;;;;;;;4.40;3.10;;;;;;;14.41;74.66;99461.39;137329;1194;96356;-77
2021/08/27 01:04:54;;;;;;;4.20;2.90;;;;;;;14.42;74.68;99459.85;137312;1202;97669;-75
2021/08/27 01:08:06;;;;;;;5.10;3.00;;;;;;;14.41;74.64;99461.94;137304;1202;108343;-73
2021/08/27 01:11:17;;;;;;;5.00;3.30;;;;;;;14.39;74.74;99460.42;137310;1194;96666;-75
2021/08/27 01:14:29;;;;;;;4.80;3.20;;;;;;;14.34;74.50;99454.56;137285;1202;110787;-75
2021/08/27 01:17:41;;;;;;;4.40;2.70;;;;;;;14.18;74.66;99454.16;137300;1202;96370;-75
2021/08/27 01:21:19;;;;;;;4.50;3.00;;;;;;;14.08;74.84;99451.09;137264;1202;96667;-73
2021/08/27 01:24:25;;;;;;;5.90;3.00;;;;;;;14.11;75.05;99459.29;137201;1202;108674;-75
2021/08/27 01:27:32;;;;;;;4.90;2.90;;;;;;;14.17;74.78;99461.31;137344;1202;96363;-74
2021/08/27 01:30:47;;;;;;;4.50;2.90;;;;;;;14.20;74.90;99462.89;137281;1202;111012;-74
2021/08/27 01:34:02;;;;;;;4.70;2.90;;;;;;;14.21;74.86;99463.11;137358;1202;96327;-75
2021/08/27 01:37:11;;;;;;;5.80;2.70;;;;;;;14.21;74.91;99462.08;137330;1195;96373;-75
2021/08/27 01:40:19;;;;;;;5.10;2.60;;;;;;;14.21;74.87;99461.99;137300;1194;108643;-75
2021/08/27 01:43:29;;;;;;;4.80;2.90;;;;;;;14.24;74.93;99465.77;137319;1202;97657;-71
2021/08/27 01:46:37;;;;;;;4.00;3.20;;;;;;;14.26;74.66;99465.95;137286;1202;110863;-74
2021/08/27 01:49:44;;;;;;;3.90;2.70;;;;;;;14.27;74.82;99461.03;137340;1203;96387;-75
2021/08/27 01:52:50;;;;;;;5.40;3.00;;;;;;;14.26;74.75;99455.75;137359;1202;97640;-74
2021/08/27 01:55:59;;;;;;;5.80;3.30;;;;;;;14.24;74.88;99451.83;137312;1202;108747;-75
2021/08/27 01:59:07;;;;;;;4.40;2.80;;;;;;;14.16;74.65;99444.96;137346;1202;96352;-74
2021/08/27 02:02:20;;;;;;;4.00;2.80;;;;;;;14.03;74.61;99444.21;137305;1202;111636;-76
2021/08/27 02:05:27;;;;;;;5.80;2.70;;;;;;;13.99;75.11;99443.11;137395;1203;97799;-75
2021/08/27 02:08:33;;;;;;;4.30;2.80;;;;;;;14.02;75.13;99446.05;137163;1202;96334;-71
2021/08/27 02:11:39;;;;;;;4.50;2.90;;;;;;;14.04;75.01;99450.78;137278;1202;108112;-71
2021/08/27 02:14:46;;;;;;;7.10;2.80;;;;;;;14.04;74.98;99454.89;137359;1202;96411;-72
2021/08/27 02:17:52;;;;;;;3.80;3.10;;;;;;;14.02;75.09;99452.48;137312;1202;111033;-72
2021/08/27 02:20:58;;;;;;;4.40;2.90;;;;;;;13.97;74.96;99461.11;137358;1202;97275;-72
2021/08/27 02:24:07;;;;;;;5.10;2.70;;;;;;;13.96;74.99;99463.58;137272;1202;97235;-71
2021/08/27 02:27:13;;;;;;;5.00;2.90;;;;;;;13.97;75.06;99467.15;137348;1202;107361;-73
2021/08/27 02:30:22;;;;;;;6.10;3.00;;;;;;;14.00;75.13;99467.91;137241;1202;97251;-71
2021/08/27 02:33:29;;;;;;;5.30;3.00;;;;;;;14.00;75.06;99464.38;137296;1203;111848;-73
2021/08/27 02:36:36;;;;;;;4.90;2.60;;;;;;;13.97;75.00;99461.83;137364;1195;97167;-72
2021/08/27 02:39:43;;;;;;;4.10;2.80;;;;;;;13.93;75.06;99458.49;137430;1202;96398;-73
2021/08/27 02:42:48;;;;;;;6.00;2.60;;;;;;;13.89;74.89;99459.27;137303;1202;108153;-71
2021/08/27 02:45:54;;;;;;;3.60;2.30;;;;;;;13.83;75.11;99455.52;137537;1202;96769;-70
2021/08/27 02:48:59;;;;;;;4.20;2.50;;;;;;;13.80;75.05;99455.95;137306;1202;110862;-72
2021/08/27 02:52:12;;;;;;;4.00;2.80;;;;;;;13.74;75.12;99456.80;137343;1203;97676;-72
2021/08/27 02:55:22;;;;;;;5.60;2.90;;;;;;;13.68;75.06;99455.67;137329;1202;97707;-72
2021/08/27 02:58:32;;;;;;;6.10;2.90;;;;;;;13.61;74.99;99457.98;137390;1202;107523;-76
2021/08/27 03:01:40;;;;;;;5.00;3.30;;;;;;;13.52;74.89;99462.10;137364;1202;96347;-74
2021/08/27 03:04:57;;;;;;;6.00;3.00;;;;;;;13.42;74.92;99465.17;137429;1202;109727;-76
2021/08/27 03:08:07;;;;;;;4.40;2.90;;;;;;;13.31;74.95;99467.92;137559;1202;96295;-74
2021/08/27 03:11:17;;;;;;;6.10;2.80;;;;;;;13.25;74.91;99467.20;137526;1202;97759;-77
2021/08/27 03:14:31;;;;;;;4.20;2.80;;;;;;;13.22;74.90;99468.16;138128;1194;108513;-75
2021/08/27 03:17:42;;;;;;;4.30;2.60;;;;;;;13.16;74.80;99463.86;137509;1194;96765;-77
2021/08/27 03:20:55;;;;;;;5.50;2.60;;;;;;;13.09;74.61;99466.85;137480;1202;110939;-77
2021/08/27 03:24:11;;;;;;;6.30;2.70;;;;;;;12.97;74.71;99473.89;137575;1202;96346;-77
2021/08/27 03:27:23;;;;;;;4.90;2.60;;;;;;;12.88;74.73;99475.51;137572;1202;96361;-77
2021/08/27 03:30:31;;;;;;;7.50;2.30;;;;;;;12.81;74.72;99481.55;137402;1202;108481;-77
2021/08/27 03:33:39;;;;;;;5.10;2.30;;;;;;;12.76;74.75;99482.41;137491;1203;97721;-77
2021/08/27 03:36:45;;;;;;;7.40;5.10;;;;;;;12.75;74.90;99484.16;137482;1202;111045;-77
2021/08/27 03:39:52;;;;;;;5.80;5.20;;;;;;;12.73;74.92;99479.84;137450;1202;97666;-77
2021/08/27 03:42:59;;;;;;;10.50;7.60;;;;;;;12.72;74.97;99474.06;137566;1203;96473;-78
2021/08/27 03:46:06;;;;;;;8.70;5.30;;;;;;;12.66;74.73;99476.51;137456;1202;108630;-77
2021/08/27 03:49:12;;;;;;;5.60;3.50;;;;;;;12.59;74.60;99476.89;137428;1202;96358;-77
2021/08/27 03:52:18;;;;;;;5.00;2.90;;;;;;;12.50;74.67;99483.45;137731;1194;110436;-77
2021/08/27 03:55:24;;;;;;;6.00;2.40;;;;;;;12.43;74.71;99482.56;137375;1202;96436;-77
2021/08/27 03:58:30;;;;;;;3.80;2.20;;;;;;;12.41;74.74;99479.36;137340;1202;96454;-78
2021/08/27 04:01:36;;;;;;;3.10;2.10;;;;;;;12.41;74.69;99476.29;137415;1202;108447;-76
2021/08/27 04:04:42;;;;;;;3.20;2.60;;;;;;;12.44;74.81;99476.16;137475;1202;97322;-77
2021/08/27 04:07:49;;;;;;;4.90;2.70;;;;;;;12.49;74.75;99474.63;137488;1202;110914;-77
2021/08/27 04:10:54;;;;;;;5.00;2.40;;;;;;;12.53;74.61;99481.30;137440;1195;96422;-74
2021/08/27 04:14:00;;;;;;;3.50;2.50;;;;;;;12.53;74.52;99482.31;137365;1202;96331;-77
2021/08/27 04:17:06;;;;;;;3.90;2.40;;;;;;;12.56;74.52;99486.27;137455;1195;108704;-76
2021/08/27 04:20:14;;;;;;;5.90;2.00;;;;;;;12.58;74.55;99493.33;137360;1203;96775;-79
2021/08/27 04:23:20;;;;;;;3.20;2.10;;;;;;;12.62;74.59;99492.56;137372;1202;110797;-77
2021/08/27 04:26:26;;;;;;;3.20;2.10;;;;;;;12.69;74.50;99489.94;137355;1202;97633;-78
2021/08/27 04:29:31;;;;;;;5.30;2.10;;;;;;;12.75;74.51;99496.64;137385;1202;97695;-74
2021/08/27 04:32:36;;;;;;;2.50;2.00;;;;;;;12.82;74.36;99503.86;137362;1202;108460;-74
2021/08/27 04:35:42;;;;;;;4.10;2.20;;;;;;;12.88;74.47;99510.98;137337;1202;96436;-74
2021/08/27 04:38:48;;;;;;;4.50;2.20;;;;;;;12.93;74.41;99515.95;137290;1202;110916;-73
2021/08/27 04:41:54;;;;;;;3.50;2.00;;;;;;;12.97;74.44;99520.44;137370;1202;97518;-74
2021/08/27 04:44:59;;;;;;;2.50;1.90;;;;;;;13.00;74.45;99525.66;137284;1203;97654;-73
2021/08/27 04:48:05;;;;;;;2.70;1.80;;;;;;;13.06;74.55;99529.73;137376;1202;108484;-74
2021/08/27 04:51:11;;;;;;;2.70;2.10;;;;;;;13.12;74.44;99533.80;137351;1202;97642;-73
2021/08/27 04:54:16;;;;;;;4.00;1.90;;;;;;;13.17;74.50;99540.33;137340;1202;110917;-74
2021/08/27 04:57:23;;;;;;;2.70;1.90;;;;;;;13.21;74.59;99541.63;137369;1202;97239;-73
2021/08/27 05:00:29;;;;;;;3.20;2.30;;;;;;;13.30;74.54;99549.13;137386;1194;96341;-73
2021/08/27 05:03:35;;;;;;;4.00;2.40;;;;;;;13.35;74.57;99550.11;137421;1194;108538;-74
2021/08/27 05:06:40;;;;;;;2.80;2.10;;;;;;;13.40;74.56;99548.47;137195;1202;96347;-73
2021/08/27 05:09:45;;;;;;;5.10;2.30;;;;;;;13.44;74.57;99551.23;137303;1202;110824;-74
2021/08/27 05:12:51;;;;;;;4.40;2.30;;;;;;;13.49;74.77;99551.27;137306;1202;96325;-73
2021/08/27 05:15:56;;;;;;;3.50;2.10;;;;;;;13.60;74.78;99554.46;137353;1194;97185;-74
2021/08/27 05:19:02;;;;;;;5.20;2.50;;;;;;;13.68;74.58;99558.52;137297;1202;107458;-73
2021/08/27 05:22:07;;;;;;;5.00;2.70;;;;;;;13.78;74.62;99559.47;137389;1202;97657;-70
2021/08/27 05:25:13;;;;;;;5.30;2.80;;;;;;;13.86;74.76;99561.54;137330;1202;109968;-73
2021/08/27 05:28:19;;;;;;;3.40;2.90;;;;;;;13.95;74.80;99560.61;137335;1202;96349;-73
2021/08/27 05:31:24;;;;;;;5.00;2.50;;;;;;;14.01;74.80;99561.67;137353;1202;96377;-72
2021/08/27 05:34:30;;;;;;;6.30;2.90;;;;;;;14.09;75.14;99562.17;137324;1202;108637;-74
2021/08/27 05:37:35;;;;;;;4.60;2.90;;;;;;;14.21;74.88;99559.62;137338;1194;96339;-73
2021/08/27 05:40:40;;;;;;;4.40;3.20;;;;;;;14.35;75.06;99556.60;137332;1202;110752;-72
2021/08/27 05:43:46;;;;;;;5.20;3.40;;;;;;;14.45;74.90;99554.44;137370;1195;96346;-73
2021/08/27 05:46:52;;;;;;;4.20;3.20;;;;;;;14.52;74.89;99551.64;137323;1202;96330;-75
2021/08/27 05:49:57;;;;;;;5.70;3.10;;;;;;;14.59;75.10;99550.42;137362;1202;108660;-74
2021/08/27 05:53:03;;;;;;;5.10;3.00;;;;;;;14.63;74.89;99554.19;137298;1202;96378;-75
2021/08/27 05:56:08;;;;;;;4.30;2.80;;;;;;;14.69;74.76;99559.50;137315;1202;110722;-74
2021/08/27 05:59:14;;;;;;;5.40;2.70;;;;;;;14.81;74.96;99560.27;137356;1202;96305;-74
2021/08/27 06:02:19;;;;;;;4.90;2.80;;;;;;;14.95;74.79;99558.34;137313;1202;96442;-74
2021/08/27 06:05:25;;;;;;;3.80;2.70;;;;;;;15.07;74.72;99558.40;137319;1202;108581;-73
2021/08/27 06:08:30;;;;;;;4.90;3.60;;;;;;;15.21;74.67;99560.73;137336;1202;97364;-73
2021/08/27 06:11:37;;;;;;;4.50;3.30;;;;;;;15.39;74.74;99570.17;137345;1203;111398;-74
2021/08/27 06:14:43;;;;;;;6.40;4.00;;;;;;;15.62;74.85;99569.30;137381;1202;96429;-74
2021/08/27 06:17:48;;;;;;;4.00;2.90;;;;;;;15.89;74.78;99572.95;137322;1202;97265;-74
2021/08/27 06:20:53;;;;;;;5.30;3.30;;;;;;;16.15;74.48;99573.98;137332;1194;108658;-75
2021/08/27 06:23:59;;;;;;;5.00;3.30;;;;;;;16.32;74.35;99571.17;137319;1202;96414;-74
2021/08/27 06:27:05;;;;;;;4.50;3.20;;;;;;;16.49;73.95;99572.81;137340;1202;110874;-73
2021/08/27 06:30:11;;;;;;;4.20;3.00;;;;;;;16.54;73.76;99570.28;137357;1202;96722;-74
2021/08/27 06:33:17;;;;;;;5.40;3.20;;;;;;;16.58;73.48;99573.96;137370;1202;97274;-74
2021/08/27 06:36:22;;;;;;;4.40;3.10;;;;;;;16.59;73.79;99580.05;137367;1202;108383;-74
2021/08/27 06:39:28;;;;;;;5.20;3.30;;;;;;;16.71;73.70;99588.08;137358;1202;97281;-75
2021/08/27 06:42:34;;;;;;;5.30;2.70;;;;;;;16.84;73.62;99590.61;137315;1202;110898;-74
2021/08/27 06:45:39;;;;;;;3.60;2.30;;;;;;;17.01;73.55;99595.39;137339;1202;97258;-73
2021/08/27 06:48:45;;;;;;;5.20;2.90;;;;;;;17.18;73.43;99595.75;137337;1202;96334;-73
2021/08/27 06:51:51;;;;;;;4.60;2.70;;;;;;;17.34;73.39;99595.16;137308;1202;108741;-73
2021/08/27 06:54:57;;;;;;;3.40;2.90;;;;;;;17.42;72.97;99596.42;137372;1202;97165;-74
2021/08/27 06:58:03;;;;;;;3.60;2.80;;;;;;;17.41;72.76;99592.23;137292;1202;109895;-73
2021/08/27 07:01:08;;;;;;;5.20;2.90;;;;;;;17.38;72.58;99592.90;137334;1202;97272;-73
2021/08/27 07:04:13;;;;;;;4.40;2.70;;;;;;;17.26;72.61;99593.52;137341;1202;97291;-73
2021/08/27 07:07:19;;;;;;;4.30;2.90;;;;;;;17.22;72.86;99591.92;137342;1202;108628;-73
2021/08/27 07:10:25;;;;;;;4.40;2.90;;;;;;;17.23;72.93;99593.00;137336;1202;97656;-73
2021/08/27 07:13:30;;;;;;;8.00;5.50;;;;;;;17.29;72.82;99599.88;137298;1202;110753;-73
2021/08/27 07:16:36;;;;;;;4.30;2.90;;;;;;;17.39;72.91;99600.33;137299;1202;97650;-73
2021/08/27 07:19:42;;;;;;;3.00;2.70;;;;;;;17.55;72.77;99605.36;137322;1202;97676;-73
2021/08/27 07:22:48;;;;;;;3.40;2.70;;;;;;;17.72;72.59;99605.06;137320;1202;108510;-73
2021/08/27 07:25:54;;;;;;;4.20;2.80;;;;;;;17.85;72.11;99606.89;137336;1202;97252;-73
2021/08/27 07:29:01;;;;;;;4.40;3.10;;;;;;;18.00;72.21;99609.63;137304;1202;110940;-73
2021/08/27 07:32:11;;;;;;;3.90;2.80;;;;;;;18.14;71.99;99608.42;137332;1202;97156;-73
2021/08/27 07:35:16;;;;;;;3.20;2.70;;;;;;;18.26;71.62;99610.61;137386;1202;97668;-73
2021/08/27 07:38:22;;;;;;;4.40;2.60;;;;;;;18.31;71.15;99610.83;137351;1203;108499;-74
2021/08/27 07:41:27;;;;;;;4.80;2.90;;;;;;;18.38;71.56;99608.30;137347;1202;96356;-74
2021/08/27 07:44:33;;;;;;;3.80;2.90;;;;;;;18.57;71.47;99613.81;137224;1202;110960;-75
2021/08/27 07:47:38;;;;;;;5.20;2.50;;;;;;;18.71;71.00;99610.25;137438;1195;96406;-72
2021/08/27 07:50:43;;;;;;;4.60;2.80;;;;;;;18.83;71.09;99610.81;137399;1195;96413;-74
2021/08/27 07:53:49;;;;;;;3.80;2.40;;;;;;;19.01;70.60;99617.17;137300;1202;108564;-73
2021/08/27 07:56:54;;;;;;;3.60;2.20;;;;;;;18.99;69.31;99618.95;137312;1202;96381;-75
2021/08/27 08:00:00;;;;;;;2.70;2.00;;;;;;;18.88;69.11;99618.00;137318;1202;111306;-73
2021/08/27 08:03:05;;;;;;;2.70;2.00;;;;;;;18.85;69.37;99613.05;137344;1202;97656;-75
2021/08/27 08:06:11;;;;;;;2.30;1.90;;;;;;;18.92;69.56;99618.09;137320;1202;97706;-73
2021/08/27 08:09:16;;;;;;;3.10;2.50;;;;;;;19.02;68.85;99621.57;137363;1202;108249;-74
2021/08/27 08:12:22;;;;;;;3.30;2.40;;;;;;;19.05;68.82;99622.20;137385;1194;97015;-74
2021/08/27 08:15:28;;;;;;;3.20;2.40;;;;;;;19.11;69.09;99622.44;137335;1202;110966;-73
2021/08/27 08:18:35;;;;;;;3.20;2.20;;;;;;;19.13;68.29;99621.87;137367;1202;96349;-74
2021/08/27 08:21:41;;;;;;;4.80;2.10;;;;;;;19.05;68.26;99624.36;137366;1202;97259;-75
2021/08/27 08:24:47;;;;;;;2.30;2.10;;;;;;;19.03;68.24;99627.66;137344;1202;108288;-74
2021/08/27 08:27:53;;;;;;;2.50;2.00;;;;;;;19.09;68.47;99626.66;137368;1203;96418;-75
2021/08/27 08:30:58;;;;;;;2.50;2.00;;;;;;;19.19;67.71;99628.30;137312;1203;110801;-73
2021/08/27 08:34:04;;;;;;;2.60;2.20;;;;;;;19.08;67.07;99624.79;137342;1203;97400;-74
2021/08/27 08:37:10;;;;;;;2.90;2.10;;;;;;;19.00;66.76;99625.09;137310;1202;97656;-73
2021/08/27 08:40:15;;;;;;;2.80;2.20;;;;;;;18.99;67.21;99621.43;137299;1202;108629;-74
2021/08/27 08:43:21;;;;;;;5.50;2.50;;;;;;;19.09;67.24;99624.65;137307;1203;97649;-75
2021/08/27 08:46:26;;;;;;;3.60;2.20;;;;;;;19.20;66.85;99627.58;137290;1202;111405;-74
2021/08/27 08:49:34;;;;;;;2.60;1.90;;;;;;;19.41;67.15;99632.24;137331;1203;97671;-76
2021/08/27 08:52:43;;;;;;;17.30;11.00;;;;;;;19.69;66.76;99631.20;137289;1202;96444;-74
2021/08/27 08:55:49;;;;;;;8.50;6.00;;;;;;;19.79;65.00;99633.23;137347;1194;108641;-75
2021/08/27 08:58:57;;;;;;;10.20;6.30;;;;;;;19.82;65.07;99631.97;137288;1203;97664;-74
2021/08/27 09:02:07;;;;;;;2.70;2.20;;;;;;;19.97;65.21;99636.60;137246;1204;110311;-73
2021/08/27 09:05:13;;;;;;;1.70;1.50;;;;;;;20.12;65.31;99637.30;137324;1203;97653;-74
2021/08/27 09:08:30;;;;;;;2.60;1.30;;;;;;;20.31;64.92;99638.18;137327;1202;96334;-73
2021/08/27 09:11:35;;;;;;;1.50;1.20;;;;;;;20.49;64.94;99643.33;137329;1202;108556;-75
2021/08/27 09:14:41;;;;;;;1.80;1.30;;;;;;;20.62;65.01;99641.84;137337;1202;96362;-75
2021/08/27 09:17:48;;;;;;;1.50;1.30;;;;;;;20.72;64.39;99646.97;137337;1203;109788;-75
2021/08/27 09:20:53;;;;;;;3.00;1.30;;;;;;;20.76;64.28;99645.81;137372;1203;96445;-75
2021/08/27 09:24:17;;;;;;;1.50;1.20;;;;;;;20.91;64.42;99642.52;137339;1203;97675;-74
2021/08/27 09:27:22;;;;;;;1.70;1.30;;;;;;;20.98;63.09;99650.39;137339;1202;108912;-75
2021/08/27 09:30:28;;;;;;;1.30;1.00;;;;;;;20.92;63.39;99652.25;137361;1202;97259;-74
2021/08/27 09:33:36;;;;;;;1.10;0.80;;;;;;;20.97;62.99;99650.84;137284;1203;110297;-73
2021/08/27 09:36:42;;;;;;;0.90;0.70;;;;;;;21.04;62.70;99650.78;137336;1203;97748;-74
2021/08/27 09:39:47;;;;;;;3.00;1.80;;;;;;;21.05;61.56;99657.92;137359;1204;96973;-74
2021/08/27 09:42:54;;;;;;;1.70;1.30;;;;;;;20.89;62.23;99660.84;137242;1203;108466;-74
2021/08/27 09:45:59;;;;;;;1.10;1.00;;;;;;;20.95;62.08;99667.41;137254;1199;96470;-74
2021/08/27 09:49:24;;;;;;;1.40;1.30;;;;;;;20.90;60.02;99665.61;137258;1203;111284;-75
2021/08/27 09:52:30;;;;;;;1.30;1.00;;;;;;;20.56;60.18;99667.70;137293;1203;96341;-73
2021/08/27 09:55:36;;;;;;;1.30;1.10;;;;;;;20.35;60.89;99666.58;137258;1203;97275;-73
2021/08/27 09:58:54;;;;;;;2.20;0.80;;;;;;;20.31;61.30;99666.35;137239;1203;109249;-73
2021/08/27 10:01:59;;;;;;;2.20;1.40;;;;;;;20.42;61.60;99669.61;137238;1204;96474;-73
2021/08/27 10:05:05;;;;;;;1.20;1.10;;;;;;;20.51;60.85;99674.34;137200;1204;110949;-74
2021/08/27 10:08:20;;;;;;;1.20;1.00;;;;;;;20.49;60.14;99676.39;137271;1203;97237;-72
2021/08/27 10:11:25;;;;;;;1.60;1.20;;;;;;;20.33;59.93;99674.04;137281;1203;96386;-74
2021/08/27 10:14:31;;;;;;;1.50;0.80;;;;;;;20.35;60.25;99677.29;137261;1203;108462;-74
2021/08/27 10:17:38;;;;;;;2.20;1.00;;;;;;;20.43;59.90;99673.15;137238;1197;97071;-74
2021/08/27 10:20:45;;;;;;;1.00;0.90;;;;;;;20.60;59.84;99671.92;137289;1204;110806;-74
2021/08/27 10:23:51;;;;;;;2.00;1.00;;;;;;;20.71;58.75;99666.80;137289;1203;96325;-74
2021/08/27 10:26:57;;;;;;;2.10;0.90;;;;;;;20.81;59.65;99662.34;137295;1203;96721;-75
2021/08/27 10:30:05;;;;;;;1.30;0.70;;;;;;;20.94;58.78;99665.88;137256;1204;107966;-74
2021/08/27 10:33:10;;;;;;;1.10;0.70;;;;;;;20.98;59.49;99668.67;137055;1198;96858;-75
2021/08/27 10:36:44;;;;;;;1.50;0.90;;;;;;;21.05;59.51;99663.79;137126;1203;110892;-73
2021/08/27 10:39:49;;;;;;;0.80;0.80;;;;;;;21.04;59.05;99663.97;137325;1203;96395;-74
2021/08/27 10:42:57;;;;;;;1.20;1.10;;;;;;;21.01;59.20;99656.90;137280;1204;97237;-74
2021/08/27 10:46:02;;;;;;;11.50;8.00;;;;;;;20.97;59.19;99660.89;137415;1204;108503;-75
2021/08/27 10:49:09;;;;;;;2.50;1.90;;;;;;;20.93;59.05;99663.30;137428;1204;97259;-73
2021/08/27 10:52:39;;;;;;;1.90;1.20;;;;;;;20.89;59.45;99662.33;137287;1204;110809;-73
2021/08/27 10:55:45;;;;;;;2.30;1.10;;;;;;;20.86;59.23;99660.52;137277;1203;97654;-74
2021/08/27 10:58:53;;;;;;;1.30;0.90;;;;;;;20.78;59.33;99661.48;137304;1204;97635;-74
2021/08/27 11:02:05;;;;;;;1.10;0.80;;;;;;;20.70;59.41;99661.19;137277;1204;108571;-74
2021/08/27 11:05:11;;;;;;;1.00;0.80;;;;;;;20.67;59.36;99664.95;137334;1195;96821;-74
2021/08/27 11:08:18;;;;;;;2.40;2.20;;;;;;;20.62;59.39;99666.20;137281;1204;110864;-74
2021/08/27 11:11:24;;;;;;;1.60;1.40;;;;;;;20.63;59.24;99668.31;137293;1203;97273;-72
2021/08/27 11:14:30;;;;;;;2.00;1.60;;;;;;;20.64;59.20;99667.10;137254;1203;96445;-72
2021/08/27 11:17:39;;;;;;;3.10;2.30;;;;;;;20.71;59.10;99667.48;137290;1199;108508;-72
2021/08/27 11:20:45;;;;;;;13.90;6.10;;;;;;;20.77;59.26;99665.18;137265;1203;97690;-74
2021/08/27 11:24:14;;;;;;;4.10;2.60;;;;;;;20.80;58.94;99663.52;137279;1204;109969;-75
2021/08/27 11:27:20;;;;;;;2.20;1.30;;;;;;;20.78;58.36;99664.13;137300;1204;97660;-74
2021/08/27 11:30:36;;;;;;;2.10;1.70;;;;;;;20.73;58.73;99666.19;137317;1203;97689;-75
2021/08/27 11:33:59;;;;;;;5.50;2.40;;;;;;;20.77;58.14;99669.25;137305;1204;107978;-72
2021/08/27 11:37:06;;;;;;;4.40;2.50;;;;;;;20.81;58.21;99674.89;137301;1204;97008;-73
2021/08/27 11:40:14;;;;;;;2.40;2.10;;;;;;;20.86;57.98;99673.26;137295;1204;110802;-72
2021/08/27 11:43:44;;;;;;;2.40;1.80;;;;;;;20.92;57.80;99669.88;137423;1200;96433;-75
2021/08/27 11:46:49;;;;;;;1.30;1.20;;;;;;;21.06;57.71;99668.90;137341;1204;97389;-75
2021/08/27 11:50:00;;;;;;;3.60;1.80;;;;;;;21.28;57.19;99666.20;137231;1203;108521;-74
2021/08/27 11:53:06;;;;;;;1.40;0.90;;;;;;;21.54;56.97;99663.71;137312;1203;96814;-74
2021/08/27 11:56:15;;;;;;;1.00;0.70;;;;;;;21.81;56.14;99660.09;137300;1204;110732;-74
2021/08/27 11:59:28;;;;;;;0.60;0.60;;;;;;;22.10;56.62;99658.24;137280;1200;96347;-74
2021/08/27 12:02:34;;;;;;;0.90;0.60;;;;;;;22.38;55.82;99656.04;137285;1204;97646;-73
2021/08/27 12:05:40;;;;;;;0.80;0.80;;;;;;;22.61;55.87;99655.52;137262;1204;108681;-73
2021/08/27 12:08:48;;;;;;;0.90;0.50;;;;;;;22.70;54.80;99654.20;137317;1204;97381;-76
2021/08/27 12:11:53;;;;;;;1.70;0.50;;;;;;;22.58;54.11;99653.40;137297;1200;110514;-72
2021/08/27 12:14:59;;;;;;;1.20;0.80;;;;;;;22.46;54.36;99657.98;137287;1204;97272;-74
2021/08/27 12:18:06;;;;;;;2.30;1.50;;;;;;;22.41;54.89;99660.19;137358;1205;97647;-75
2021/08/27 12:21:18;;;;;;;0.40;0.40;;;;;;;22.34;54.82;99662.52;137391;1204;108678;-74
2021/08/27 12:24:24;;;;;;;0.70;0.50;;;;;;;22.20;54.04;99656.70;137264;1204;97255;-74
2021/08/27 12:27:29;;;;;;;2.00;1.10;;;;;;;22.09;54.75;99655.50;137289;1204;111036;-74
2021/08/27 12:30:35;;;;;;;0.90;0.80;;;;;;;22.08;54.80;99652.93;137316;1204;97259;-75
2021/08/27 12:33:41;;;;;;;0.90;0.80;;;;;;;22.07;54.41;99653.37;137342;1195;96683;-75
2021/08/27 12:36:47;;;;;;;1.40;0.60;;;;;;;22.02;54.48;99648.63;137304;1204;108405;-75
2021/08/27 12:39:54;;;;;;;0.80;0.60;;;;;;;22.07;54.21;99647.32;137348;1204;96346;-74
2021/08/27 12:43:03;;;;;;;1.30;0.70;;;;;;;22.12;54.09;99649.41;137318;1204;110562;-74
2021/08/27 12:46:09;;;;;;;2.80;0.90;;;;;;;22.11;53.28;99649.18;137311;1205;96351;-74
2021/08/27 12:49:16;;;;;;;0.90;0.80;;;;;;;21.85;52.95;99649.84;137303;1203;97742;-74
2021/08/27 12:52:21;;;;;;;1.80;0.90;;;;;;;21.70;54.19;99648.25;137306;1204;107866;-74
2021/08/27 12:55:28;;;;;;;1.50;0.90;;;;;;;21.67;53.85;99650.89;137332;1204;96409;-74
2021/08/27 12:58:34;;;;;;;0.80;0.80;;;;;;;21.55;53.68;99650.99;137279;1203;110820;-74
2021/08/27 13:01:39;;;;;;;0.80;0.70;;;;;;;21.49;53.75;99650.96;137283;1204;97268;-75
2021/08/27 13:04:46;;;;;;;1.70;0.70;;;;;;;21.52;53.75;99655.07;137273;1204;97667;-74
2021/08/27 13:08:07;;;;;;;2.40;0.90;;;;;;;21.52;52.62;99651.81;137341;1201;108490;-74
2021/08/27 13:11:13;;;;;;;1.00;0.70;;;;;;;21.27;51.66;99649.39;137355;1203;96338;-73
2021/08/27 13:14:21;;;;;;;1.00;0.80;;;;;;;21.22;52.97;99649.08;137232;1202;111194;-74
2021/08/27 13:17:27;;;;;;;1.10;0.80;;;;;;;21.40;53.33;99650.95;137368;1202;97003;-70
2021/08/27 13:20:34;;;;;;;1.30;0.90;;;;;;;21.65;53.39;99645.92;137326;1201;96385;-75
2021/08/27 13:23:40;;;;;;;1.60;1.20;;;;;;;21.84;52.79;99649.23;137341;1202;108700;-75
2021/08/27 13:26:54;;;;;;;1.00;0.80;;;;;;;21.94;53.12;99650.56;137274;1203;97291;-75
2021/08/27 13:30:00;;;;;;;1.40;0.90;;;;;;;22.06;52.58;99650.09;137322;1201;109835;-75
2021/08/27 13:33:06;;;;;;;1.80;0.80;;;;;;;22.03;51.76;99649.91;137330;1202;96350;-74
2021/08/27 13:36:11;;;;;;;3.30;0.90;;;;;;;22.00;52.41;99646.17;137341;1202;96347;-74
2021/08/27 13:39:17;;;;;;;1.00;0.80;;;;;;;22.01;52.48;99645.64;137321;1201;108498;-72
2021/08/27 13:42:23;;;;;;;1.30;1.00;;;;;;;22.02;52.60;99649.48;137320;1201;97696;-74
2021/08/27 13:45:28;;;;;;;3.20;1.30;;;;;;;22.00;52.14;99657.03;137232;1201;110863;-73
2021/08/27 13:48:33;;;;;;;2.10;1.10;;;;;;;21.72;51.41;99662.30;137300;1202;97643;-75
2021/08/27 13:51:39;;;;;;;1.40;0.90;;;;;;;21.46;51.98;99664.38;137333;1201;97657;-74
2021/08/27 13:54:44;;;;;;;2.60;1.10;;;;;;;21.40;52.04;99662.04;137342;1201;108695;-74
2021/08/27 13:57:50;;;;;;;1.40;0.90;;;;;;;21.28;52.00;99662.50;137333;1202;96367;-72
2021/08/27 14:00:56;;;;;;;1.10;0.80;;;;;;;21.22;52.49;99666.32;137334;1201;110979;-72
2021/08/27 14:04:01;;;;;;;0.90;0.90;;;;;;;21.26;53.16;99670.00;137299;1201;97264;-74
2021/08/27 14:07:07;;;;;;;1.00;0.70;;;;;;;21.26;53.05;99666.52;137550;1195;96342;-73
2021/08/27 14:10:13;;;;;;;2.80;1.00;;;;;;;21.22;53.35;99666.81;137308;1202;108518;-73
2021/08/27 14:13:18;;;;;;;2.40;1.10;;;;;;;21.16;53.56;99665.34;137402;1201;97025;-73
2021/08/27 14:16:24;;;;;;;1.00;0.80;;;;;;;21.10;54.01;99664.70;137375;1202;110787;-73
2021/08/27 14:19:29;;;;;;;1.10;0.90;;;;;;;21.01;53.84;99666.58;137554;1201;96410;-73
2021/08/27 14:22:35;;;;;;;1.90;0.90;;;;;;;20.89;54.19;99665.15;137444;1201;96423;-74
2021/08/27 14:25:40;;;;;;;0.80;0.70;;;;;;;20.79;54.54;99663.51;137351;1195;108686;-73
2021/08/27 14:28:46;;;;;;;1.00;0.90;;;;;;;20.69;54.95;99664.63;137424;1195;96410;-73